sensor_id;sensor_type;location;lat;lon;timestamp;pressure;altitude;pressure_sealevel;temperature;humidity
8398;BME280;4236;54.504;9.588;2024-03-02T00:01:05;100459.38;;;7.89;100.00
8398;BME280;4236;54.504;9.588;2024-03-02T00:03:34;100456.91;;;7.87;100.00
8398;BME280;4236;54.504;9.588;2024-03-02T00:06:02;100459.56;;;7.87;100.00
8398;BME280;4236;54.504;9.588;2024-03-02T00:08:30;100448.31;;;7.85;100.00
8398;BME280;4236;54.504;9.588;2024-03-02T00:10:59;100448.50;;;7.84;100.00
8398;BME280;4236;54.504;9.588;2024-03-02T00:13:27;100442.56;;;7.82;100.00
8398;BME280;4236;54.504;9.588;2024-03-02T00:15:56;100431.47;;;7.78;100.00
8398;BME280;4236;54.504;9.588;2024-03-02T00:18:26;100437.78;;;7.77;100.00
8398;BME280;4236;54.504;9.588;2024-03-02T00:20:56;100418.56;;;7.75;100.00
8398;BME280;4236;54.504;9.588;2024-03-02T00:23:27;100421.22;;;7.75;100.00
8398;BME280;4236;54.504;9.588;2024-03-02T00:25:58;100421.44;;;7.73;100.00
8398;BME280;4236;54.504;9.588;2024-03-02T00:28:29;100421.22;;;7.75;100.00
8398;BME280;4236;54.504;9.588;2024-03-02T00:31:02;100415.94;;;7.75;100.00
8398;BME280;4236;54.504;9.588;2024-03-02T00:33:33;100413.28;;;7.75;100.00
8398;BME280;4236;54.504;9.588;2024-03-02T00:36:03;100419.41;;;7.75;100.00
8398;BME280;4236;54.504;9.588;2024-03-02T00:38:32;100405.09;;;7.76;100.00
8398;BME280;4236;54.504;9.588;2024-03-02T00:41:03;100412.91;;;7.78;100.00
8398;BME280;4236;54.504;9.588;2024-03-02T00:43:41;100411.06;;;7.78;100.00
8398;BME280;4236;54.504;9.588;2024-03-02T00:46:15;100398.63;;;7.79;100.00
8398;BME280;4236;54.504;9.588;2024-03-02T00:48:52;100404.72;;;7.79;100.00
8398;BME280;4236;54.504;9.588;2024-03-02T00:51:23;100400.25;;;7.80;100.00
8398;BME280;4236;54.504;9.588;2024-03-02T00:53:51;100400.25;;;7.80;100.00
8398;BME280;4236;54.504;9.588;2024-03-02T00:56:22;100396.41;;;7.82;100.00
8398;BME280;4236;54.504;9.588;2024-03-02T00:58:50;100397.88;;;7.85;100.00
8398;BME280;4236;54.504;9.588;2024-03-02T01:01:19;100401.53;;;7.84;100.00
8398;BME280;4236;54.504;9.588;2024-03-02T01:03:47;100403.19;;;7.85;100.00
8398;BME280;4236;54.504;9.588;2024-03-02T01:06:17;100413.81;;;7.85;100.00
8398;BME280;4236;54.504;9.588;2024-03-02T01:08:46;100405.84;;;7.85;100.00
8398;BME280;4236;54.504;9.588;2024-03-02T01:11:19;100400.72;;;7.84;100.00
8398;BME280;4236;54.504;9.588;2024-03-02T01:13:49;100400.25;;;7.80;100.00
8398;BME280;4236;54.504;9.588;2024-03-02T01:16:17;100401.09;;;7.80;100.00
8398;BME280;4236;54.504;9.588;2024-03-02T01:18:44;100403.94;;;7.79;100.00
8398;BME280;4236;54.504;9.588;2024-03-02T01:21:13;100395.97;;;7.79;100.00
8398;BME280;4236;54.504;9.588;2024-03-02T01:23:41;100398.63;;;7.79;100.00
8398;BME280;4236;54.504;9.588;2024-03-02T01:26:10;100389.38;;;7.75;100.00
8398;BME280;4236;54.504;9.588;2024-03-02T01:28:37;100396.34;;;7.76;100.00
8398;BME280;4236;54.504;9.588;2024-03-02T01:31:05;100393.69;;;7.76;100.00
8398;BME280;4236;54.504;9.588;2024-03-02T01:33:33;100398.16;;;7.75;100.00
8398;BME280;4236;54.504;9.588;2024-03-02T01:36:01;100401.66;;;7.76;100.00
8398;BME280;4236;54.504;9.588;2024-03-02T01:38:29;100408.59;;;7.77;100.00
8398;BME280;4236;54.504;9.588;2024-03-02T01:40:57;100399.00;;;7.76;100.00
8398;BME280;4236;54.504;9.588;2024-03-02T01:43:26;100387.56;;;7.75;100.00
8398;BME280;4236;54.504;9.588;2024-03-02T01:45:54;100390.38;;;7.74;100.00
8398;BME280;4236;54.504;9.588;2024-03-02T01:48:23;100397.97;;;7.77;100.00
8398;BME280;4236;54.504;9.588;2024-03-02T01:50:51;100396.97;;;7.78;100.00
8398;BME280;4236;54.504;9.588;2024-03-02T01:53:18;100396.97;;;7.78;100.00
8398;BME280;4236;54.504;9.588;2024-03-02T01:55:46;100394.13;;;7.79;100.00
8398;BME280;4236;54.504;9.588;2024-03-02T01:58:14;100395.59;;;7.82;100.00
8398;BME280;4236;54.504;9.588;2024-03-02T02:00:43;100391.09;;;7.82;100.00
8398;BME280;4236;54.504;9.588;2024-03-02T02:03:11;100386.59;;;7.83;100.00
8398;BME280;4236;54.504;9.588;2024-03-02T02:05:41;100388.25;;;7.84;100.00
8398;BME280;4236;54.504;9.588;2024-03-02T02:08:09;100384.78;;;7.84;100.00
8398;BME280;4236;54.504;9.588;2024-03-02T02:10:37;100389.91;;;7.85;100.00
8398;BME280;4236;54.504;9.588;2024-03-02T02:13:05;100380.31;;;7.84;100.00
8398;BME280;4236;54.504;9.588;2024-03-02T02:15:34;100382.56;;;7.87;100.00
8398;BME280;4236;54.504;9.588;2024-03-02T02:18:04;100382.75;;;7.86;100.00
8398;BME280;4236;54.504;9.588;2024-03-02T02:20:32;100376.44;;;7.87;100.00
8398;BME280;4236;54.504;9.588;2024-03-02T02:23:02;100377.28;;;7.87;100.00
8398;BME280;4236;54.504;9.588;2024-03-02T02:25:32;100385.22;;;7.87;100.00
8398;BME280;4236;54.504;9.588;2024-03-02T02:28:00;100383.56;;;7.86;100.00
8398;BME280;4236;54.504;9.588;2024-03-02T02:30:29;100377.44;;;7.86;100.00
8398;BME280;4236;54.504;9.588;2024-03-02T02:32:58;100377.28;;;7.87;100.00
8398;BME280;4236;54.504;9.588;2024-03-02T02:35:26;100377.06;;;7.89;100.00
8398;BME280;4236;54.504;9.588;2024-03-02T02:37:56;100383.41;;;7.88;100.00
8398;BME280;4236;54.504;9.588;2024-03-02T02:40:26;100379.72;;;7.89;100.00
8398;BME280;4236;54.504;9.588;2024-03-02T02:42:55;100385.84;;;7.89;100.00
8398;BME280;4236;54.504;9.588;2024-03-02T02:45:23;100389.16;;;7.91;100.00
8398;BME280;4236;54.504;9.588;2024-03-02T02:47:51;100386.69;;;7.90;100.00
8398;BME280;4236;54.504;9.588;2024-03-02T02:50:19;100389.16;;;7.91;100.00
8398;BME280;4236;54.504;9.588;2024-03-02T02:52:47;100383.47;;;7.94;100.00
8398;BME280;4236;54.504;9.588;2024-03-02T02:55:14;100386.94;;;7.95;100.00
8398;BME280;4236;54.504;9.588;2024-03-02T02:57:44;100385.75;;;7.97;100.00
8398;BME280;4236;54.504;9.588;2024-03-02T03:00:14;100381.63;;;7.95;100.00
8398;BME280;4236;54.504;9.588;2024-03-02T03:02:46;100379.19;;;7.93;100.00
8398;BME280;4236;54.504;9.588;2024-03-02T03:05:16;100382.81;;;7.92;100.00
8398;BME280;4236;54.504;9.588;2024-03-02T03:07:44;100368.94;;;7.90;100.00
8398;BME280;4236;54.504;9.588;2024-03-02T03:10:12;100371.75;;;7.89;100.00
8398;BME280;4236;54.504;9.588;2024-03-02T03:12:41;100365.44;;;7.90;100.00
8398;BME280;4236;54.504;9.588;2024-03-02T03:15:12;100367.47;;;7.88;100.00
8398;BME280;4236;54.504;9.588;2024-03-02T03:17:40;100368.47;;;7.87;100.00
8398;BME280;4236;54.504;9.588;2024-03-02T03:20:09;100372.34;;;7.84;100.00
8398;BME280;4236;54.504;9.588;2024-03-02T03:22:37;100375.16;;;7.82;100.00
8398;BME280;4236;54.504;9.588;2024-03-02T03:25:06;100372.88;;;7.79;100.00
8398;BME280;4236;54.504;9.588;2024-03-02T03:27:35;100367.94;;;7.76;100.00
8398;BME280;4236;54.504;9.588;2024-03-02T03:30:03;100376.94;;;7.75;100.00
8398;BME280;4236;54.504;9.588;2024-03-02T03:32:34;100370.19;;;7.73;100.00
8398;BME280;4236;54.504;9.588;2024-03-02T03:35:02;100376.47;;;7.72;100.00
8398;BME280;4236;54.504;9.588;2024-03-02T03:37:31;100365.63;;;7.67;100.00
8398;BME280;4236;54.504;9.588;2024-03-02T03:40:01;100368.91;;;7.69;100.00
8398;BME280;4236;54.504;9.588;2024-03-02T03:42:29;100364.16;;;7.64;100.00
8398;BME280;4236;54.504;9.588;2024-03-02T03:44:57;100367.19;;;7.61;100.00
8398;BME280;4236;54.504;9.588;2024-03-02T03:47:24;100365.34;;;7.62;100.00
8398;BME280;4236;54.504;9.588;2024-03-02T03:49:54;100364.53;;;7.61;100.00
8398;BME280;4236;54.504;9.588;2024-03-02T03:52:21;100362.69;;;7.62;100.00
8398;BME280;4236;54.504;9.588;2024-03-02T03:54:49;100362.06;;;7.60;100.00
8398;BME280;4236;54.504;9.588;2024-03-02T03:57:17;100361.59;;;7.56;100.00
8398;BME280;4236;54.504;9.588;2024-03-02T03:59:45;100367.56;;;7.58;100.00
8398;BME280;4236;54.504;9.588;2024-03-02T04:02:13;100349.34;;;7.55;100.00
8398;BME280;4236;54.504;9.588;2024-03-02T04:04:41;100354.28;;;7.58;100.00
8398;BME280;4236;54.504;9.588;2024-03-02T04:07:11;100350.97;;;7.56;100.00
8398;BME280;4236;54.504;9.588;2024-03-02T04:09:39;100360.41;;;7.59;100.00
8398;BME280;4236;54.504;9.588;2024-03-02T04:12:06;100373.50;;;7.60;100.00
8398;BME280;4236;54.504;9.588;2024-03-02T04:14:34;100368.19;;;7.60;100.00
8398;BME280;4236;54.504;9.588;2024-03-02T04:17:04;100375.94;;;7.62;100.00
8398;BME280;4236;54.504;9.588;2024-03-02T04:19:32;100375.94;;;7.62;100.00
8398;BME280;4236;54.504;9.588;2024-03-02T04:22:00;100373.28;;;7.62;100.00
8398;BME280;4236;54.504;9.588;2024-03-02T04:24:42;100368.19;;;7.60;100.00
8398;BME280;4236;54.504;9.588;2024-03-02T04:27:10;100373.28;;;7.62;100.00
8398;BME280;4236;54.504;9.588;2024-03-02T04:29:38;100373.28;;;7.62;100.00
8398;BME280;4236;54.504;9.588;2024-03-02T04:32:06;100374.13;;;7.62;100.00
8398;BME280;4236;54.504;9.588;2024-03-02T04:34:34;100367.34;;;7.60;100.00
8398;BME280;4236;54.504;9.588;2024-03-02T04:37:01;100366.53;;;7.59;100.00
8398;BME280;4236;54.504;9.588;2024-03-02T04:39:29;100374.50;;;7.59;100.00
8398;BME280;4236;54.504;9.588;2024-03-02T04:41:58;100378.19;;;7.58;100.00
8398;BME280;4236;54.504;9.588;2024-03-02T04:44:26;100392.06;;;7.60;100.00
8398;BME280;4236;54.504;9.588;2024-03-02T04:46:54;100384.09;;;7.60;100.00
8398;BME280;4236;54.504;9.588;2024-03-02T04:49:22;100384.47;;;7.57;100.00
8398;BME280;4236;54.504;9.588;2024-03-02T04:51:50;100379.34;;;7.56;100.00
8398;BME280;4236;54.504;9.588;2024-03-02T04:54:17;100377.72;;;7.55;100.00
8398;BME280;4236;54.504;9.588;2024-03-02T04:56:45;100379.16;;;7.57;100.00
8398;BME280;4236;54.504;9.588;2024-03-02T04:59:19;100378.34;;;7.57;100.00
8398;BME280;4236;54.504;9.588;2024-03-02T05:01:47;100381.81;;;7.57;100.00
8398;BME280;4236;54.504;9.588;2024-03-02T05:04:14;100380.00;;;7.58;100.00
8398;BME280;4236;54.504;9.588;2024-03-02T05:06:42;100381.81;;;7.57;100.00
8398;BME280;4236;54.504;9.588;2024-03-02T05:09:10;100375.53;;;7.58;100.00
8398;BME280;4236;54.504;9.588;2024-03-02T05:11:38;100377.34;;;7.58;100.00
8398;BME280;4236;54.504;9.588;2024-03-02T05:14:37;100370.22;;;7.58;100.00
8398;BME280;4236;54.504;9.588;2024-03-02T05:17:06;100377.97;;;7.60;100.00
8398;BME280;4236;54.504;9.588;2024-03-02T05:19:34;100377.16;;;7.59;100.00
8398;BME280;4236;54.504;9.588;2024-03-02T05:22:01;100378.97;;;7.59;100.00
8398;BME280;4236;54.504;9.588;2024-03-02T05:24:29;100385.31;;;7.58;100.00
8398;BME280;4236;54.504;9.588;2024-03-02T05:26:57;100374.22;;;7.54;100.00
8398;BME280;4236;54.504;9.588;2024-03-02T05:29:25;100368.47;;;7.51;100.00
8398;BME280;4236;54.504;9.588;2024-03-02T05:31:54;100368.84;;;7.48;100.00
8398;BME280;4236;54.504;9.588;2024-03-02T05:34:21;100367.19;;;7.47;100.00
8398;BME280;4236;54.504;9.588;2024-03-02T05:36:49;100377.00;;;7.46;100.00
8398;BME280;4236;54.504;9.588;2024-03-02T05:39:17;100378.16;;;7.44;100.00
8398;BME280;4236;54.504;9.588;2024-03-02T05:41:45;100368.75;;;7.41;100.00
8398;BME280;4236;54.504;9.588;2024-03-02T05:44:13;100375.63;;;7.36;100.00
8398;BME280;4236;54.504;9.588;2024-03-02T05:46:42;100370.69;;;7.33;100.00
8398;BME280;4236;54.504;9.588;2024-03-02T05:49:11;100377.03;;;7.32;100.00
8398;BME280;4236;54.504;9.588;2024-03-02T05:51:39;100373.91;;;7.28;100.00
8398;BME280;4236;54.504;9.588;2024-03-02T05:54:08;100381.03;;;7.28;100.00
8398;BME280;4236;54.504;9.588;2024-03-02T05:56:36;100368.97;;;7.25;100.00
8398;BME280;4236;54.504;9.588;2024-03-02T05:59:03;100369.50;;;7.20;100.00
8398;BME280;4236;54.504;9.588;2024-03-02T06:01:40;100373.34;;;7.18;100.00
8398;BME280;4236;54.504;9.588;2024-03-02T06:04:08;100368.25;;;7.16;100.00
8398;BME280;4236;54.504;9.588;2024-03-02T06:06:38;100371.69;;;7.17;100.00
8398;BME280;4236;54.504;9.588;2024-03-02T06:09:06;100367.59;;;7.14;100.00
8398;BME280;4236;54.504;9.588;2024-03-02T06:11:34;100377.38;;;7.14;100.00
8398;BME280;4236;54.504;9.588;2024-03-02T06:14:02;100378.19;;;7.14;100.00
8398;BME280;4236;54.504;9.588;2024-03-02T06:16:30;100378.19;;;7.14;100.00
8398;BME280;4236;54.504;9.588;2024-03-02T06:18:58;100374.91;;;7.12;100.00
8398;BME280;4236;54.504;9.588;2024-03-02T06:21:27;100372.25;;;7.12;100.00
8398;BME280;4236;54.504;9.588;2024-03-02T06:23:56;100371.63;;;7.10;100.00
8398;BME280;4236;54.504;9.588;2024-03-02T06:26:24;100377.72;;;7.11;100.00
8398;BME280;4236;54.504;9.588;2024-03-02T06:28:52;100378.94;;;7.08;100.00
8398;BME280;4236;54.504;9.588;2024-03-02T06:31:20;100371.34;;;7.05;100.00
8398;BME280;4236;54.504;9.588;2024-03-02T06:33:47;100372.72;;;7.01;100.00
8398;BME280;4236;54.504;9.588;2024-03-02T06:36:15;100381.22;;;6.97;100.00
8398;BME280;4236;54.504;9.588;2024-03-02T06:38:43;100373.25;;;6.97;100.00
8398;BME280;4236;54.504;9.588;2024-03-02T06:41:13;100377.28;;;6.93;100.00
8398;BME280;4236;54.504;9.588;2024-03-02T06:43:40;100374.81;;;6.91;100.00
8398;BME280;4236;54.504;9.588;2024-03-02T06:46:08;100373.34;;;6.89;100.00
8398;BME280;4236;54.504;9.588;2024-03-02T06:48:36;100374.53;;;6.86;100.00
8398;BME280;4236;54.504;9.588;2024-03-02T06:51:04;100383.13;;;6.88;100.00
8398;BME280;4236;54.504;9.588;2024-03-02T06:53:32;100382.75;;;6.91;100.00
8398;BME280;4236;54.504;9.588;2024-03-02T06:56:00;100380.94;;;6.92;100.00
8398;BME280;4236;54.504;9.588;2024-03-02T06:58:29;100381.09;;;6.90;100.00
8398;BME280;4236;54.504;9.588;2024-03-02T07:00:57;100380.75;;;6.93;100.00
8398;BME280;4236;54.504;9.588;2024-03-02T07:03:27;100389.16;;;6.97;100.00
8398;BME280;4236;54.504;9.588;2024-03-02T07:05:55;100384.78;;;7.04;100.00
8398;BME280;4236;54.504;9.588;2024-03-02T07:08:23;100378.56;;;7.11;100.00
8398;BME280;4236;54.504;9.588;2024-03-02T07:10:51;100380.69;;;7.16;100.00
8398;BME280;4236;54.504;9.588;2024-03-02T07:13:19;100382.59;;;7.22;100.00
8398;BME280;4236;54.504;9.588;2024-03-02T07:15:48;100378.00;;;7.31;100.00
8398;BME280;4236;54.504;9.588;2024-03-02T07:18:42;100378.94;;;7.38;100.00
8398;BME280;4236;54.504;9.588;2024-03-02T07:21:17;100372.94;;;7.50;100.00
8398;BME280;4236;54.504;9.588;2024-03-02T07:23:45;100373.50;;;7.60;100.00
8398;BME280;4236;54.504;9.588;2024-03-02T07:26:13;100379.50;;;7.69;100.00
8398;BME280;4236;54.504;9.588;2024-03-02T07:28:44;100384.97;;;7.82;100.00
8398;BME280;4236;54.504;9.588;2024-03-02T07:31:14;100389.16;;;7.91;100.00
8398;BME280;4236;54.504;9.588;2024-03-02T07:33:44;100391.56;;;8.07;100.00
8398;BME280;4236;54.504;9.588;2024-03-02T07:36:11;100390.25;;;8.18;100.00
8398;BME280;4236;54.504;9.588;2024-03-02T07:38:39;100392.13;;;8.39;100.00
8398;BME280;4236;54.504;9.588;2024-03-02T07:41:07;100401.25;;;8.57;100.00
8398;BME280;4236;54.504;9.588;2024-03-02T07:43:35;100411.91;;;8.85;100.00
8398;BME280;4236;54.504;9.588;2024-03-02T07:46:03;100417.19;;;9.06;100.00
8398;BME280;4236;54.504;9.588;2024-03-02T07:48:32;100415.25;;;9.21;100.00
8398;BME280;4236;54.504;9.588;2024-03-02T07:51:00;100413.00;;;9.25;100.00
8398;BME280;4236;54.504;9.588;2024-03-02T07:53:29;100414.03;;;9.24;100.00
8398;BME280;4236;54.504;9.588;2024-03-02T07:55:57;100411.69;;;9.14;100.00
8398;BME280;4236;54.504;9.588;2024-03-02T07:58:28;100408.63;;;9.11;100.00
8398;BME280;4236;54.504;9.588;2024-03-02T08:00:57;100415.34;;;9.07;100.00
8398;BME280;4236;54.504;9.588;2024-03-02T08:03:28;100422.56;;;9.13;100.00
8398;BME280;4236;54.504;9.588;2024-03-02T08:05:57;100433.25;;;9.19;100.00
8398;BME280;4236;54.504;9.588;2024-03-02T08:08:24;100431.88;;;9.30;100.00
8398;BME280;4236;54.504;9.588;2024-03-02T08:10:52;100428.38;;;9.29;100.00
8398;BME280;4236;54.504;9.588;2024-03-02T08:13:20;100430.66;;;9.32;100.00
8398;BME280;4236;54.504;9.588;2024-03-02T08:15:48;100439.28;;;9.34;100.00
8398;BME280;4236;54.504;9.588;2024-03-02T08:18:16;100442.16;;;9.39;100.00
8398;BME280;4236;54.504;9.588;2024-03-02T08:20:44;100439.34;;;9.48;100.00
8398;BME280;4236;54.504;9.588;2024-03-02T08:23:14;100428.69;;;9.48;100.00
8398;BME280;4236;54.504;9.588;2024-03-02T08:25:42;100433.84;;;9.49;100.00
8398;BME280;4236;54.504;9.588;2024-03-02T08:28:10;100432.19;;;9.48;100.00
8398;BME280;4236;54.504;9.588;2024-03-02T08:30:38;100428.13;;;9.52;100.00
8398;BME280;4236;54.504;9.588;2024-03-02T08:33:06;100427.91;;;9.54;100.00
8398;BME280;4236;54.504;9.588;2024-03-02T08:35:33;100431.59;;;9.53;100.00
8398;BME280;4236;54.504;9.588;2024-03-02T08:38:03;100435.53;;;9.63;100.00
8398;BME280;4236;54.504;9.588;2024-03-02T08:40:32;100437.38;;;9.63;100.00
8398;BME280;4236;54.504;9.588;2024-03-02T08:43:00;100435.75;;;9.68;100.00
8398;BME280;4236;54.504;9.588;2024-03-02T08:45:28;100438.19;;;9.63;100.00
8398;BME280;4236;54.504;9.588;2024-03-02T08:47:56;100443.94;;;9.67;100.00
8398;BME280;4236;54.504;9.588;2024-03-02T08:50:24;100446.84;;;9.72;100.00
8398;BME280;4236;54.504;9.588;2024-03-02T08:52:51;100453.59;;;9.74;100.00
8398;BME280;4236;54.504;9.588;2024-03-02T08:55:19;100442.41;;;9.85;100.00
8398;BME280;4236;54.504;9.588;2024-03-02T08:57:48;100453.88;;;9.92;100.00
8398;BME280;4236;54.504;9.588;2024-03-02T09:00:17;100443.25;;;9.99;100.00
8398;BME280;4236;54.504;9.588;2024-03-02T09:02:45;100454.38;;;10.09;100.00
8398;BME280;4236;54.504;9.588;2024-03-02T09:05:13;100450.94;;;10.15;100.00
8398;BME280;4236;54.504;9.588;2024-03-02T09:07:41;100440.41;;;10.07;100.00
8398;BME280;4236;54.504;9.588;2024-03-02T09:10:09;100447.56;;;10.07;100.00
8398;BME280;4236;54.504;9.588;2024-03-02T09:12:37;100456.72;;;10.38;100.00
8398;BME280;4236;54.504;9.588;2024-03-02T09:15:08;100459.66;;;10.63;100.00
8398;BME280;4236;54.504;9.588;2024-03-02T09:17:35;100459.03;;;10.81;100.00
8398;BME280;4236;54.504;9.588;2024-03-02T09:20:04;100452.06;;;10.80;100.00
8398;BME280;4236;54.504;9.588;2024-03-02T09:22:32;100452.88;;;11.00;100.00
8398;BME280;4236;54.504;9.588;2024-03-02T09:25:00;100452.88;;;11.13;100.00
8398;BME280;4236;54.504;9.588;2024-03-02T09:27:28;100461.66;;;11.40;100.00
8398;BME280;4236;54.504;9.588;2024-03-02T09:29:56;100452.78;;;11.52;100.00
8398;BME280;4236;54.504;9.588;2024-03-02T09:32:25;100453.59;;;11.73;100.00
8398;BME280;4236;54.504;9.588;2024-03-02T09:34:53;100451.09;;;11.78;100.00
8398;BME280;4236;54.504;9.588;2024-03-02T09:37:22;100452.09;;;11.83;100.00
8398;BME280;4236;54.504;9.588;2024-03-02T09:39:50;100453.94;;;11.83;100.00
8398;BME280;4236;54.504;9.588;2024-03-02T09:42:19;100456.78;;;11.94;100.00
8398;BME280;4236;54.504;9.588;2024-03-02T09:44:50;100454.50;;;11.98;100.00
8398;BME280;4236;54.504;9.588;2024-03-02T09:47:18;100453.03;;;12.08;100.00
8398;BME280;4236;54.504;9.588;2024-03-02T09:49:47;100451.75;;;12.11;100.00
8398;BME280;4236;54.504;9.588;2024-03-02T09:52:15;100460.44;;;12.06;100.00
8398;BME280;4236;54.504;9.588;2024-03-02T09:54:43;100447.25;;;12.11;100.00
8398;BME280;4236;54.504;9.588;2024-03-02T09:57:11;100441.06;;;12.11;100.00
8398;BME280;4236;54.504;9.588;2024-03-02T09:59:39;100435.97;;;12.09;100.00
8398;BME280;4236;54.504;9.588;2024-03-02T10:02:07;100432.50;;;12.02;100.00
8398;BME280;4236;54.504;9.588;2024-03-02T10:04:35;100429.41;;;11.99;100.00
8398;BME280;4236;54.504;9.588;2024-03-02T10:07:14;100431.63;;;12.08;100.00
8398;BME280;4236;54.504;9.588;2024-03-02T10:09:43;100433.84;;;12.18;100.00
8398;BME280;4236;54.504;9.588;2024-03-02T10:12:13;100435.84;;;12.29;100.00
8398;BME280;4236;54.504;9.588;2024-03-02T10:14:42;100429.25;;;12.25;100.00
8398;BME280;4236;54.504;9.588;2024-03-02T10:17:11;100426.41;;;12.27;100.00
8398;BME280;4236;54.504;9.588;2024-03-02T10:19:40;100426.13;;;12.35;100.00
8398;BME280;4236;54.504;9.588;2024-03-02T10:22:09;100424.13;;;12.55;100.00
8398;BME280;4236;54.504;9.588;2024-03-02T10:24:40;100432.50;;;12.65;100.00
8398;BME280;4236;54.504;9.588;2024-03-02T10:27:09;100428.91;;;12.77;100.00
8398;BME280;4236;54.504;9.588;2024-03-02T10:29:38;100432.84;;;12.75;100.00
8398;BME280;4236;54.504;9.588;2024-03-02T10:32:09;100434.75;;;12.93;100.00
8398;BME280;4236;54.504;9.588;2024-03-02T10:34:39;100430.28;;;13.11;100.00
8398;BME280;4236;54.504;9.588;2024-03-02T10:37:07;100424.03;;;13.17;100.00
8398;BME280;4236;54.504;9.588;2024-03-02T10:39:35;100431.91;;;13.12;100.00
8398;BME280;4236;54.504;9.588;2024-03-02T10:42:06;100425.53;;;13.13;100.00
8398;BME280;4236;54.504;9.588;2024-03-02T10:44:34;100434.25;;;13.27;100.00
8398;BME280;4236;54.504;9.588;2024-03-02T10:47:03;100441.34;;;13.40;100.00
8398;BME280;4236;54.504;9.588;2024-03-02T10:49:32;100447.00;;;13.50;100.00
8398;BME280;4236;54.504;9.588;2024-03-02T10:52:01;100439.63;;;13.45;100.00
8398;BME280;4236;54.504;9.588;2024-03-02T10:54:29;100436.44;;;13.55;100.00
8398;BME280;4236;54.504;9.588;2024-03-02T10:57:07;100434.19;;;13.52;100.00
8398;BME280;4236;54.504;9.588;2024-03-02T10:59:36;100438.75;;;13.69;100.00
8398;BME280;4236;54.504;9.588;2024-03-02T11:02:06;100439.88;;;13.62;100.00
8398;BME280;4236;54.504;9.588;2024-03-02T11:04:39;100440.16;;;13.72;100.00
8398;BME280;4236;54.504;9.588;2024-03-02T11:07:09;100448.94;;;13.79;100.00
8398;BME280;4236;54.504;9.588;2024-03-02T11:09:41;100449.31;;;13.82;100.00
8398;BME280;4236;54.504;9.588;2024-03-02T11:12:13;100443.50;;;13.85;100.00
8398;BME280;4236;54.504;9.588;2024-03-02T11:14:44;100451.22;;;13.94;100.00
8398;BME280;4236;54.504;9.588;2024-03-02T11:17:14;100457.50;;;13.88;100.00
8398;BME280;4236;54.504;9.588;2024-03-02T11:19:43;100452.19;;;13.81;100.00
8398;BME280;4236;54.504;9.588;2024-03-02T11:22:12;100462.63;;;13.71;100.00
8398;BME280;4236;54.504;9.588;2024-03-02T11:24:47;100462.03;;;13.69;100.00
8398;BME280;4236;54.504;9.588;2024-03-02T11:30:52;100461.13;;;13.57;100.00
8398;BME280;4236;54.504;9.588;2024-03-02T11:33:24;100459.97;;;13.53;100.00
8398;BME280;4236;54.504;9.588;2024-03-02T11:35:55;100456.28;;;13.47;100.00
8398;BME280;4236;54.504;9.588;2024-03-02T11:38:27;100467.16;;;13.52;100.00
8398;BME280;4236;54.504;9.588;2024-03-02T11:40:55;100469.22;;;13.50;100.00
8398;BME280;4236;54.504;9.588;2024-03-02T11:43:25;100473.13;;;13.54;100.00
8398;BME280;4236;54.504;9.588;2024-03-02T11:45:58;100468.59;;;13.55;100.00
8398;BME280;4236;54.504;9.588;2024-03-02T11:48:26;100460.94;;;13.58;100.00
8398;BME280;4236;54.504;9.588;2024-03-02T11:50:58;100466.03;;;13.60;100.00
8398;BME280;4236;54.504;9.588;2024-03-02T11:53:27;100466.72;;;13.55;100.00
8398;BME280;4236;54.504;9.588;2024-03-02T11:55:58;100473.50;;;13.58;100.00
8398;BME280;4236;54.504;9.588;2024-03-02T11:58:30;100477.81;;;13.59;100.00
8398;BME280;4236;54.504;9.588;2024-03-02T12:00:57;100476.38;;;13.56;100.00
8398;BME280;4236;54.504;9.588;2024-03-02T12:03:26;100474.31;;;13.58;100.00
8398;BME280;4236;54.504;9.588;2024-03-02T12:05:54;100476.75;;;13.60;100.00
8398;BME280;4236;54.504;9.588;2024-03-02T12:08:22;100477.66;;;13.54;100.00
8398;BME280;4236;54.504;9.588;2024-03-02T12:10:58;100478.63;;;13.59;100.00
8398;BME280;4236;54.504;9.588;2024-03-02T12:13:26;100463.16;;;13.61;100.00
8398;BME280;4236;54.504;9.588;2024-03-02T12:15:55;100472.31;;;13.72;100.00
8398;BME280;4236;54.504;9.588;2024-03-02T12:18:24;100477.00;;;13.76;100.00
8398;BME280;4236;54.504;9.588;2024-03-02T12:20:53;100475.13;;;13.77;100.00
8398;BME280;4236;54.504;9.588;2024-03-02T12:23:24;100472.38;;;13.83;100.00
8398;BME280;4236;54.504;9.588;2024-03-02T12:25:52;100468.97;;;13.95;100.00
8398;BME280;4236;54.504;9.588;2024-03-02T12:28:20;100469.09;;;14.00;100.00
8398;BME280;4236;54.504;9.588;2024-03-02T12:30:48;100460.28;;;14.11;100.00
8398;BME280;4236;54.504;9.588;2024-03-02T12:33:19;100457.38;;;14.12;100.00
8398;BME280;4236;54.504;9.588;2024-03-02T12:35:49;100457.38;;;14.12;100.00
8398;BME280;4236;54.504;9.588;2024-03-02T12:38:17;100442.84;;;14.20;100.00
8398;BME280;4236;54.504;9.588;2024-03-02T12:40:47;100451.47;;;14.22;100.00
8398;BME280;4236;54.504;9.588;2024-03-02T12:43:15;100453.47;;;14.26;100.00
8398;BME280;4236;54.504;9.588;2024-03-02T12:45:43;100449.31;;;14.30;100.00
8398;BME280;4236;54.504;9.588;2024-03-02T12:48:11;100447.75;;;14.23;100.00
8398;BME280;4236;54.504;9.588;2024-03-02T12:50:42;100451.13;;;14.18;100.00
8398;BME280;4236;54.504;9.588;2024-03-02T12:53:14;100453.81;;;14.18;100.00
8398;BME280;4236;54.504;9.588;2024-03-02T12:55:43;100441.91;;;14.26;100.00
8398;BME280;4236;54.504;9.588;2024-03-02T12:58:16;100442.38;;;14.23;100.00
8398;BME280;4236;54.504;9.588;2024-03-02T13:00:44;100447.00;;;14.34;100.00
8398;BME280;4236;54.504;9.588;2024-03-02T13:03:12;100447.25;;;14.44;100.00
8398;BME280;4236;54.504;9.588;2024-03-02T13:05:48;100449.31;;;14.60;100.00
8398;BME280;4236;54.504;9.588;2024-03-02T13:08:17;100451.78;;;14.73;100.00
8398;BME280;4236;54.504;9.588;2024-03-02T13:10:45;100442.91;;;14.84;100.00
8398;BME280;4236;54.504;9.588;2024-03-02T13:13:13;100438.25;;;14.91;100.00
8398;BME280;4236;54.504;9.588;2024-03-02T13:15:41;100446.44;;;14.96;100.00
8398;BME280;4236;54.504;9.588;2024-03-02T13:18:09;100438.97;;;14.99;100.00
8398;BME280;4236;54.504;9.588;2024-03-02T13:20:38;100440.94;;;15.03;100.00